Airfield :
LOGIN :

Register | Disclaimer

   EN    FR    IT 

 










Legend :    VFR   Marginal VFR   IFR   Intensive IFR   Very Intensive IFR
Visi :
Ceiling :
>= 8 km
>= 3000ft
5 to 8 km
1000 to 3000 ft
1500m to 5 km
500 to 1000 ft
800 to 1500m
200 to 500 ft
< 800m
< 200 ft
Symbols :   Thunderstorms  Fog  Heavy snow  Heavy precipitations  Wind > 20 kt
SIGMETs :     Misc.  Thunderstorms  Icing  Turbulence  Mountain Waves  Volcanic Ashes






- Airport Elevation : 42 ft
- IATA code : KGD


UMKK - Khrabrava - Kaliningrad

CURRENT METAR :
  • 071400Z 29007MPS CAVOK 17/04 Q1027 R24/95D NOSIG RMK QFE769/1025

EXPIRED METARs :
  • 071330Z 27009MPS CAVOK 18/04 Q1026 R24/CLRD95 NOSIG RMK QFE769/1025
  • 071300Z 27008MPS CAVOK 20/02 Q1026 R24/95D NOSIG RMK QFE768/1025
  • 071230Z 25009MPS CAVOK 20/02 Q1026 R24/CLRD95 NOSIG RMK QFE768/1024
  • 071200Z 23008MPS CAVOK 21/02 Q1026 R24/CLRD95 NOSIG RMK QFE768/1024
  • 071130Z 22008MPS CAVOK 20/01 Q1026 R24/CLRD95 NOSIG RMK QFE768/1024

TAF TAF UMKK
Valid from the 07 at 12:00 until the 08 at 12:00 UTC


071059Z 0712/0812 27007G14MPS CAVOK
BECMG 0720/0722 29003G08MPS
BECMG 0800/0802 32003MPS
TEMPO 0802/0806 VRB01MPS 3100 BR MIFG FEW003
BECMG 0806/0808 16003G08MPS



MET'MAP, your aeronautical weather chart ! - Copyright ORBIFLY December 2007 - Disclaimer

ORBIFLY MET'MAP TEAM :

Programming & Development : Alexandra Zaïnal
Concept & original design : Baudouin d'Aumeries
Assistance for programming : Marc-Olivier Méhu
Technical & hardware support : Manuel Goepfert

Contact : metmap@orbifly.com




SOURCES & CREDITS :

   NOAA